Antonito, CO

11:55 AM MDT on March 28, 2017 (GMT -0600)
Fox Creek | | Change Station

Elev 8451 ft 37.07 °N, 106.22 °W | Updated 23 seconds ago

Partly Cloudy
Partly Cloudy
44.0 °F
Feels Like 40 °F
N
7.0
Wind Variable Wind from NE

Today
High -- | Low -- °F
--% Chance of Precip.
Yesterday
High -- | Low -- °F
Precip. -- in
Pressure 29.70 in
Visibility 10.0 miles
Clouds Few 3300 ft
Scattered Clouds 4500 ft
Mostly Cloudy 6000 ft
Windchill 40 °F
Dew Point 25 °F
Humidity 48%
Rainfall 0.00 in
Snow Depth Not available.
6:55 AM 7:23 PM
New Moon, 1% visible
METAR KALS 281752Z AUTO 18004KT 10SM FEW033 SCT045 BKN060 08/M02 A2982 RMK AO2 SLP057 I6001 T00831017 10100 21028 58009
Pressure 29.70 in
Visibility 10.0 miles
Clouds Few 3300 ft
Scattered Clouds 4500 ft
Mostly Cloudy 6000 ft
Windchill 40 °F
Dew Point 25 °F
Humidity 48%
Rainfall 0.00 in
Snow Depth Not available.
6:55 AM 7:23 PM
New Moon, 1% visible
METAR KALS 281752Z AUTO 18004KT 10SM FEW033 SCT045 BKN060 08/M02 A2982 RMK AO2 SLP057 I6001 T00831017 10100 21028 58009

Get Severe Weather Alerts

Thanks for signing up!

Be on the lookout for a verification email in your inbox.

You'll start receiving the daily forecast at 8 AM.

×

10-Day Weather Forecast

Almanac

Astronomy

Mar. 28, 2017 Rise Set
Actual Time
Civil Twilight
Nautical Twilight
Astronomical Twilight
Moon
Length of Visible Light
Length of Day
Tomorrow will be .
, % of the Moon is Illuminated

Today's Extremes

State Highs State Lows

Community

WunderPhotos

Upload Photos

1,962,540 photos uploaded!

WunderBlog® & News

Nearby

Air Quality

  Air Quality AQ Index Pollutant
Not available.

Snow Depth

Station Depth Elevation

Earthquake Activity

City Distance Mag. Time & Date
Minimum magnitude displayed is 2.5.

Earthquake Activity

City Distance Mag. Time & Date
Minimum magnitude displayed is 2.5.

Coastal Water Temperatures

Place Temperature

Stations

Nearby Weather Stations

Station Location Temp. Windchill Dew Point Humidity Wind Precip. Elev Updated Type
                   

Watches & Warnings

There are currently no watches in effect.